Terminal Aerodrome Forecast
Issued by NWS Wichita, KS

Home | Current Version | Previous Version | Graphics & Text | Print | Product List | Glossary On
Versions: 1 2 3 4 5 6 7 8 9 10 11 12 13 14 15 16 17 18
851
FTUS43 KICT 300520
TAFICT
TAF
KICT 300520Z 3006/0106 02016G24KT 3SM -RA BR OVC007
      TEMPO 3009/3013 OVC004
     FM301300 34008KT 5SM -RA BR OVC008
     FM301700 28014KT P6SM OVC008
     FM302300 30018G26KT P6SM OVC015=

USA.gov is the U.S. government's official web portal to all federal, state and local government web resources and services.